Date,TemperatureHighF,TemperatureAvgF,TemperatureLowF,DewpointHighF,DewpointAvgF,DewpointLowF,HumidityHigh,HumidityAvg,HumidityLow,PressureMaxIn,PressureMinIn,WindSpeedMaxMPH,WindSpeedAvgMPH,GustSpeedMaxMPH,PrecipitationSumIn
2013-8-1,94.3,82.0,72.6,77.2,73.8,69.2,95,78,47,30.05,29.91,31,3,31,0.40
2013-8-2,90.7,81.8,75.7,77.5,74.9,70.5,94,81,59,30.05,29.93,26,3,26,0.14
2013-8-3,90.9,81.9,77.8,77.6,75.8,70.8,93,83,59,30.11,30.01,16,4,16,0.37
2013-8-4,91.5,84.2,78.4,79.4,76.9,73.8,95,80,59,30.10,30.00,16,3,17,0.00
2013-8-5,92.0,84.7,79.9,79.1,77.0,73.9,92,78,60,30.04,29.93,14,3,14,0.00
2013-8-6,94.0,83.4,78.6,79.3,76.6,71.3,93,81,50,29.98,29.89,17,2,17,0.01
2013-8-7,93.5,82.1,77.5,78.1,75.6,72.6,93,82,56,29.96,29.89,20,3,20,0.28
2013-8-8,94.0,81.7,76.3,78.1,75.4,71.6,96,82,51,30.01,29.91,24,4,24,0.56
2013-8-9,91.7,79.4,72.0,77.5,74.3,69.3,96,85,54,30.05,29.94,32,4,32,0.23
2013-8-10,94.5,84.4,76.1,77.9,74.7,71.7,93,74,49,30.10,30.00,15,5,15,0.01
2013-8-11,95.8,85.1,78.4,78.0,75.5,72.6,91,75,48,30.12,30.02,10,4,14,0.00
2013-8-12,92.8,86.0,77.5,76.3,73.0,67.2,90,67,44,30.12,29.99,15,5,15,0.00
2013-8-13,95.5,83.7,72.9,78.1,75.2,67.6,96,77,51,30.05,29.92,34,3,34,1.11
2013-8-14,92.6,84.0,75.4,76.4,74.7,71.4,96,76,54,30.01,29.91,15,3,15,0.01
2013-8-15,85.5,81.2,76.1,78.1,75.3,72.6,92,82,75,30.06,29.94,15,3,17,0.23
2013-8-16,96.0,85.3,79.5,78.1,75.3,69.2,91,73,47,30.04,29.94,22,3,22,0.00
2013-8-17,94.1,83.5,76.6,79.3,76.3,71.2,93,80,54,30.07,29.96,40,4,40,0.24
2013-8-18,92.5,82.0,74.7,78.2,75.8,70.9,95,83,59,30.11,29.97,24,4,24,1.31
2013-8-19,77.5,75.8,74.4,75.7,74.1,72.4,96,94,93,30.08,29.98,16,3,16,0.62
2013-8-20,91.0,80.6,74.4,77.7,74.7,71.8,95,83,59,30.05,29.98,25,4,25,0.06
2013-8-21,91.8,82.5,78.0,78.4,76.4,73.8,94,82,61,30.07,29.96,22,6,22,0.22
2013-8-22,96.7,81.5,74.1,78.3,75.6,70.7,96,84,49,30.04,29.93,25,4,25,0.98
2013-8-23,91.8,80.3,74.4,78.6,75.7,72.1,97,87,60,30.01,29.93,17,3,17,0.80
2013-8-24,93.5,82.0,75.4,78.8,75.2,71.8,95,82,52,30.12,29.97,27,3,27,0.90
2013-8-25,89.5,79.6,75.2,77.9,75.0,72.5,95,87,64,30.13,30.01,15,4,15,0.09
2013-8-26,92.3,78.5,72.9,77.5,74.4,70.4,96,88,55,30.11,29.98,32,4,32,1.53
2013-8-27,89.9,78.3,73.6,75.8,73.4,71.5,96,86,57,30.04,29.97,20,3,27,0.22
2013-8-28,88.5,79.1,74.8,75.8,73.5,70.0,96,84,55,30.03,29.96,17,3,17,0.00
2013-8-29,90.9,81.2,74.0,76.8,73.7,69.9,95,79,53,30.03,29.92,13,3,13,0.00
2013-8-30,93.0,81.6,76.4,76.9,74.1,69.6,92,79,54,29.99,29.89,17,2,17,0.00
2013-8-31,91.5,83.1,77.1,77.6,74.2,72.2,92,76,56,29.98,29.90,13,4,14,0.00